Time;durP1;ratioP1;P1;durP2;ratioP2;P2;SDS_P1;SDS_P2;PMS_P1;PMS_P2;Temp;Humidity;BMP_temperature;BMP_pressure;BME280_temperature;BME280_humidity;BME280_pressure;Samples;Min_cycle;Max_cycle;Signal;HPM_P1;HPM_P2
2023/02/15 00:00:33;;;;;;;13.07;9.63;;;17.80;53.80;;;;;;4992898;28;20034;-73
2023/02/15 00:02:58;;;;;;;13.65;9.93;;;17.80;53.80;;;;;;4975442;28;20029;-76
2023/02/15 00:05:24;;;;;;;11.60;9.05;;;17.70;53.80;;;;;;4992905;28;20081;-75
2023/02/15 00:07:50;;;;;;;13.85;9.85;;;17.80;53.80;;;;;;4992960;28;20022;-75
2023/02/15 00:10:16;;;;;;;13.52;9.77;;;17.70;53.80;;;;;;4992785;28;20056;-76
2023/02/15 00:12:42;;;;;;;14.43;9.63;;;17.80;53.80;;;;;;4992435;28;20019;-76
2023/02/15 00:15:08;;;;;;;14.15;10.27;;;17.70;53.70;;;;;;4992957;28;20130;-76
2023/02/15 00:17:33;;;;;;;12.10;9.93;;;17.70;53.70;;;;;;4993077;28;20118;-76
2023/02/15 00:19:59;;;;;;;12.45;9.30;;;17.70;53.80;;;;;;4992956;28;20441;-76
2023/02/15 00:22:25;;;;;;;12.15;8.95;;;17.70;53.70;;;;;;4992797;28;20022;-73
2023/02/15 00:24:51;;;;;;;12.82;9.55;;;17.70;53.60;;;;;;4992698;28;20028;-73
2023/02/15 00:27:17;;;;;;;12.38;9.02;;;17.70;54.30;;;;;;4992601;28;20105;-73
2023/02/15 00:29:42;;;;;;;11.02;9.23;;;17.70;53.60;;;;;;4992527;28;20026;-73
2023/02/15 00:32:08;;;;;;;9.88;8.10;;;17.70;54.30;;;;;;4992297;28;20413;-73
2023/02/15 00:34:33;;;;;;;11.60;8.85;;;17.70;53.60;;;;;;4992463;28;20037;-73
2023/02/15 00:36:59;;;;;;;11.00;8.40;;;17.70;53.50;;;;;;4992363;28;20023;-73
2023/02/15 00:39:27;;;;;;;10.65;8.48;;;17.70;53.50;;;;;;4992209;28;20041;-73
2023/02/15 00:41:52;;;;;;;10.57;8.38;;;17.70;53.50;;;;;;4992431;28;20022;-74
2023/02/15 00:44:18;;;;;;;11.45;8.63;;;17.70;53.40;;;;;;4992383;28;20398;-73
2023/02/15 00:46:43;;;;;;;10.05;7.95;;;17.70;53.60;;;;;;4975071;28;20022;-73
2023/02/15 00:49:10;;;;;;;11.18;8.40;;;17.60;54.20;;;;;;4992298;28;20447;-73
2023/02/15 00:51:36;;;;;;;10.82;8.27;;;17.60;53.70;;;;;;4992600;28;20027;-73
2023/02/15 00:54:01;;;;;;;9.55;7.90;;;17.60;53.60;;;;;;4975321;28;20049;-73
2023/02/15 00:56:28;;;;;;;10.18;7.90;;;17.60;53.70;;;;;;4974893;28;20496;-73
2023/02/15 00:58:54;;;;;;;10.13;8.65;;;17.60;53.70;;;;;;4975187;28;20042;-73
2023/02/15 01:01:20;;;;;;;9.50;8.02;;;17.40;60.80;;;;;;4974766;28;20552;-73
2023/02/15 01:03:47;;;;;;;10.27;8.32;;;17.60;53.70;;;;;;4974770;28;20646;-73
2023/02/15 01:06:14;;;;;;;9.98;7.60;;;17.60;53.60;;;;;;4974747;28;20532;-73
2023/02/15 01:08:40;;;;;;;9.23;7.35;;;17.60;53.60;;;;;;4974818;28;20073;-74
2023/02/15 01:11:08;;;;;;;9.10;7.40;;;17.60;53.60;;;;;;4974881;28;20022;-73
2023/02/15 01:13:35;;;;;;;9.48;8.10;;;17.60;53.70;;;;;;4974668;28;20077;-73
2023/02/15 01:16:01;;;;;;;9.80;7.95;;;17.60;53.60;;;;;;4974816;28;20038;-73
2023/02/15 01:18:27;;;;;;;9.60;7.63;;;17.60;61.00;;;;;;4974538;28;20559;-73
2023/02/15 01:20:53;;;;;;;9.23;7.47;;;17.50;53.60;;;;;;4974743;28;20034;-74
2023/02/15 01:23:19;;;;;;;10.05;8.20;;;17.60;53.10;;;;;;4960689;28;20030;-73
2023/02/15 01:25:44;;;;;;;9.23;7.45;;;17.60;53.60;;;;;;4978378;28;20053;-73
2023/02/15 01:28:10;;;;;;;7.95;7.05;;;17.50;53.60;;;;;;4995802;28;20030;-73
2023/02/15 01:30:36;;;;;;;9.85;7.40;;;17.50;53.70;;;;;;4978287;28;20177;-73
2023/02/15 01:33:02;;;;;;;8.77;7.32;;;17.50;53.80;;;;;;4978378;28;20049;-73
2023/02/15 01:35:28;;;;;;;7.97;7.10;;;17.50;53.70;;;;;;4978193;28;20426;-73
2023/02/15 01:37:55;;;;;;;10.60;7.50;;;17.40;53.60;;;;;;4995695;28;20026;-73
2023/02/15 01:40:22;;;;;;;9.45;7.40;;;17.40;53.60;;;;;;4995454;28;20404;-73
2023/02/15 01:42:55;;;;;;;8.73;7.15;;;17.40;53.60;;;;;;4995572;28;20038;-73
2023/02/15 01:45:24;;;;;;;9.98;7.57;;;17.40;53.70;;;;;;4995259;28;20026;-73
2023/02/15 01:47:50;;;;;;;8.02;6.68;;;17.40;53.70;;;;;;4995609;28;20036;-73
2023/02/15 01:50:20;;;;;;;7.53;6.78;;;17.40;54.30;;;;;;4995640;28;20485;-73
2023/02/15 01:53:15;;;;;;;8.55;7.53;;;17.40;53.70;;;;;;4995675;28;20026;-76
2023/02/15 01:55:46;;;;;;;7.90;6.70;;;17.40;53.70;;;;;;4980194;28;20046;-74
2023/02/15 01:58:14;;;;;;;8.55;6.68;;;17.40;53.70;;;;;;4995475;28;20033;-73
2023/02/15 02:04:04;;;;;;;7.85;6.88;;;17.30;53.70;;;;;;4995314;28;20057;-73
2023/02/15 02:06:33;;;;;;;8.20;6.15;;;17.30;53.70;;;;;;4995356;28;20045;-74
2023/02/15 02:08:59;;;;;;;7.43;6.32;;;17.30;53.70;;;;;;4995316;28;20042;-74
2023/02/15 02:11:25;;;;;;;9.75;7.15;;;17.30;53.70;;;;;;4995036;28;20082;-73
2023/02/15 02:13:53;;;;;;;7.32;6.22;;;17.30;53.70;;;;;;4995304;28;20023;-73
2023/02/15 02:16:30;;;;;;;8.50;6.95;;;17.30;53.70;;;;;;4994983;28;20014;-74
2023/02/15 02:19:34;;;;;;;8.90;7.03;;;17.30;53.60;;;;;;4995057;28;20157;-73
2023/02/15 02:22:02;;;;;;;7.80;6.55;;;17.30;53.80;;;;;;4994876;28;20034;-74
2023/02/15 02:24:46;;;;;;;9.30;6.93;;;17.30;53.80;;;;;;4994816;28;20026;-73
2023/02/15 02:27:30;;;;;;;9.85;6.75;;;17.30;53.70;;;;;;4994750;28;20151;-74
2023/02/15 02:30:24;;;;;;;9.25;7.15;;;17.20;53.70;;;;;;4995012;28;20030;-76
2023/02/15 02:33:04;;;;;;;7.15;6.18;;;17.20;53.70;;;;;;4964439;28;20037;-76
2023/02/15 02:35:36;;;;;;;;;;;17.20;53.70;;;;;;4994186;28;20174;-76
2023/02/15 02:38:19;;;;;;;7.47;6.15;;;17.20;53.80;;;;;;4994740;28;19988;-76
2023/02/15 02:41:12;;;;;;;7.30;5.93;;;17.20;54.40;;;;;;4994662;28;20038;-76
2023/02/15 02:43:48;;;;;;;7.88;6.22;;;17.20;53.90;;;;;;4994744;28;20061;-76
2023/02/15 02:46:25;;;;;;;6.35;5.68;;;17.20;53.80;;;;;;4994676;28;20025;-77
2023/02/15 02:48:51;;;;;;;7.32;5.93;;;17.10;53.80;;;;;;4994326;28;20030;-74
2023/02/15 02:51:21;;;;;;;6.82;5.68;;;17.10;53.80;;;;;;4994344;28;20023;-74
2023/02/15 02:53:52;;;;;;;7.65;6.05;;;17.10;53.80;;;;;;4977494;28;20123;-74
2023/02/15 02:56:31;;;;;;;7.35;6.07;;;17.10;54.00;;;;;;4994248;28;20026;-74
2023/02/15 02:59:04;;;;;;;6.93;5.85;;;17.10;53.90;;;;;;4994276;28;20034;-74
2023/02/15 03:01:35;;;;;;;7.20;6.30;;;17.00;61.50;;;;;;4993989;28;20056;-74
2023/02/15 03:04:19;;;;;;;6.05;5.45;;;17.00;53.90;;;;;;4993874;28;20084;-74
2023/02/15 03:07:02;;;;;;;7.18;5.93;;;17.10;53.90;;;;;;4993971;28;20181;-74
2023/02/15 03:09:41;;;;;;;7.30;5.90;;;17.10;54.00;;;;;;4994110;28;20030;-74
2023/02/15 03:12:12;;;;;;;6.32;5.47;;;17.00;53.80;;;;;;4994091;28;20045;-74
2023/02/15 03:14:41;;;;;;;7.82;5.75;;;17.00;53.80;;;;;;4993808;28;20031;-74
2023/02/15 03:17:07;;;;;;;7.25;6.18;;;17.00;53.80;;;;;;4993707;28;20105;-73
2023/02/15 03:19:36;;;;;;;6.75;4.97;;;17.00;53.80;;;;;;4993527;28;20038;-73
2023/02/15 03:22:19;;;;;;;7.25;5.90;;;17.00;53.80;;;;;;4993610;28;20489;-74
2023/02/15 03:24:55;;;;;;;6.57;5.45;;;17.00;53.90;;;;;;4993679;28;20029;-74
2023/02/15 03:27:25;;;;;;;7.75;6.25;;;17.00;54.00;;;;;;4993896;28;20515;-76
2023/02/15 03:29:54;;;;;;;6.30;5.65;;;17.00;53.90;;;;;;4993861;28;20025;-76
2023/02/15 03:32:21;;;;;;;6.35;5.57;;;17.00;53.90;;;;;;4976333;28;20018;-76
2023/02/15 03:34:47;;;;;;;6.03;5.20;;;17.00;54.00;;;;;;4993471;28;20033;-76
2023/02/15 03:37:26;;;;;;;6.60;5.80;;;17.50;54.20;;;;;;4993630;28;20022;-77
2023/02/15 03:41:08;;;;;;;7.28;5.88;;;16.90;54.00;;;;;;4993598;28;20409;-76
2023/02/15 03:42:45;;;;;;;7.95;6.30;;;16.90;54.00;;;;;;4993305;28;20038;-77
2023/02/15 03:45:15;;;;;;;7.80;6.05;;;16.90;53.90;;;;;;4993328;28;20442;-73
2023/02/15 03:47:47;;;;;;;6.28;5.63;;;16.90;54.00;;;;;;4993139;28;20429;-74
2023/02/15 03:53:02;;;;;;;6.95;5.85;;;16.90;54.00;;;;;;4993318;28;20042;-74
2023/02/15 03:55:28;;;;;;;6.22;5.53;;;16.90;54.00;;;;;;4992953;28;20073;-74
2023/02/15 04:03:40;;;;;;;7.22;5.30;;;16.80;53.90;;;;;;4993061;28;20068;-76
2023/02/15 04:06:05;;;;;;;6.93;5.85;;;16.80;54.00;;;;;;4999448;28;20101;-77
2023/02/15 04:11:15;;;;;;;6.00;5.25;;;16.80;54.00;;;;;;4992792;28;20056;-76
2023/02/15 04:13:41;;;;;;;6.95;5.30;;;16.80;53.90;;;;;;4992923;28;20541;-76
2023/02/15 04:16:06;;;;;;;6.20;5.57;;;16.80;54.00;;;;;;4992780;28;20030;-76
2023/02/15 04:26:48;;;;;;;6.47;5.35;;;16.70;53.90;;;;;;4993038;28;20089;-76
2023/02/15 04:29:15;;;;;;;6.38;5.15;;;16.70;53.90;;;;;;4992687;28;20019;-76
2023/02/15 04:31:40;;;;;;;6.70;5.07;;;16.70;53.90;;;;;;4992723;28;20026;-77
2023/02/15 04:34:06;;;;;;;6.30;5.70;;;16.70;54.00;;;;;;4992507;28;20019;-76
2023/02/15 04:36:32;;;;;;;9.00;5.90;;;16.70;54.00;;;;;;4992622;28;20030;-77
2023/02/15 04:38:57;;;;;;;6.32;5.22;;;16.70;54.00;;;;;;4992875;28;20038;-74
2023/02/15 04:41:23;;;;;;;6.35;5.65;;;16.70;54.10;;;;;;4992576;28;20019;-74
2023/02/15 04:43:48;;;;;;;6.80;5.50;;;16.70;54.00;;;;;;4992630;28;20106;-74
2023/02/15 04:46:14;;;;;;;5.80;5.15;;;16.70;54.00;;;;;;4992447;28;20389;-74
2023/02/15 04:48:40;;;;;;;8.57;5.43;;;16.70;54.10;;;;;;4992777;28;20026;-74
2023/02/15 04:51:07;;;;;;;5.65;5.05;;;16.70;54.00;;;;;;4992391;28;20027;-74
2023/02/15 04:53:33;;;;;;;6.00;5.00;;;16.70;54.00;;;;;;4992451;28;20393;-74
2023/02/15 04:55:59;;;;;;;6.78;5.40;;;16.70;53.90;;;;;;4992717;28;20037;-74
2023/02/15 04:58:24;;;;;;;5.57;4.85;;;16.70;54.00;;;;;;4994722;28;20105;-74
2023/02/15 05:00:50;;;;;;;6.47;5.05;;;16.70;54.00;;;;;;4996415;28;20037;-74
2023/02/15 05:03:15;;;;;;;6.78;5.25;;;16.70;54.00;;;;;;4996176;28;20106;-74
2023/02/15 05:05:41;;;;;;;7.78;5.68;;;16.70;53.90;;;;;;4996005;28;20057;-74
2023/02/15 05:08:07;;;;;;;7.28;5.05;;;16.70;54.00;;;;;;4996164;28;20027;-74
2023/02/15 05:10:33;;;;;;;6.40;5.13;;;16.70;54.10;;;;;;4996362;28;20070;-74
2023/02/15 05:12:59;;;;;;;6.55;4.90;;;16.60;54.00;;;;;;4978919;28;20025;-74
2023/02/15 05:15:24;;;;;;;5.53;4.85;;;16.70;54.00;;;;;;4996091;28;20029;-76
2023/02/15 05:17:50;;;;;;;6.45;5.55;;;16.70;54.10;;;;;;4996414;28;20027;-77
2023/02/15 05:20:18;;;;;;;6.15;5.00;;;16.60;53.90;;;;;;4996255;28;20026;-77
2023/02/15 05:22:44;;;;;;;7.28;5.25;;;16.60;54.00;;;;;;4996238;28;20105;-77
2023/02/15 05:30:39;;;;;;;6.65;5.00;;;16.60;54.10;;;;;;4996254;28;20033;-77
2023/02/15 05:33:06;;;;;;;5.70;4.78;;;16.60;53.90;;;;;;4995931;28;20101;-76
2023/02/15 05:35:32;;;;;;;5.70;4.88;;;16.60;54.00;;;;;;4995843;28;20031;-76
2023/02/15 05:37:58;;;;;;;5.85;4.90;;;16.60;54.00;;;;;;4995835;28;20080;-76
2023/02/15 05:40:23;;;;;;;6.78;5.18;;;16.70;54.00;;;;;;4995584;28;20496;-76
2023/02/15 05:42:49;;;;;;;5.43;4.93;;;16.60;53.90;;;;;;4995836;28;20018;-77
2023/02/15 05:45:15;;;;;;;4.97;4.47;;;16.60;53.90;;;;;;4995667;28;20072;-76
2023/02/15 05:47:41;;;;;;;5.72;5.13;;;16.60;53.90;;;;;;4995490;28;20038;-76
2023/02/15 05:50:08;;;;;;;5.38;4.88;;;16.60;53.90;;;;;;4995517;28;20046;-76
2023/02/15 05:52:34;;;;;;;6.28;5.03;;;16.60;53.90;;;;;;4995471;28;20080;-73
2023/02/15 05:55:02;;;;;;;5.90;5.22;;;16.60;53.90;;;;;;4995312;28;20022;-74
2023/02/15 05:57:28;;;;;;;6.15;4.95;;;16.60;53.90;;;;;;4995261;28;20062;-72
2023/02/15 05:59:54;;;;;;;5.57;4.40;;;16.60;53.90;;;;;;4995213;28;20042;-73
2023/02/15 06:02:19;;;;;;;5.60;4.90;;;16.60;54.00;;;;;;4995157;28;20076;-73
2023/02/15 06:04:45;;;;;;;6.13;5.07;;;16.50;54.00;;;;;;4994948;28;20053;-74
2023/02/15 06:07:10;;;;;;;6.38;4.63;;;16.50;54.50;;;;;;4977716;28;20107;-73
2023/02/15 06:09:36;;;;;;;5.28;4.75;;;16.50;54.00;;;;;;4994987;28;20022;-73
2023/02/15 06:12:01;;;;;;;5.03;4.53;;;16.50;54.00;;;;;;4995066;28;20485;-73
2023/02/15 06:14:27;;;;;;;5.55;4.75;;;16.50;53.90;;;;;;4994858;28;20026;-73
2023/02/15 06:16:53;;;;;;;6.30;4.15;;;16.50;53.90;;;;;;4994858;28;20465;-73
2023/02/15 06:19:19;;;;;;;5.45;4.72;;;16.50;53.90;;;;;;4994827;28;20034;-73
2023/02/15 06:21:44;;;;;;;5.60;5.00;;;16.50;54.00;;;;;;4994847;28;20019;-73
2023/02/15 06:24:10;;;;;;;6.32;5.18;;;16.50;54.00;;;;;;4994785;28;20104;-75
2023/02/15 06:26:36;;;;;;;5.00;4.50;;;16.40;53.90;;;;;;4995026;28;20040;-73
2023/02/15 06:29:02;;;;;;;7.03;4.90;;;16.50;54.00;;;;;;4977276;28;20424;-77
2023/02/15 06:31:28;;;;;;;5.10;4.60;;;16.50;54.00;;;;;;4999901;28;20025;-75
2023/02/15 06:34:00;;;;;;;4.90;4.38;;;16.40;54.00;;;;;;4979526;28;20117;-76
2023/02/15 06:36:29;;;;;;;4.95;4.45;;;16.40;54.10;;;;;;4994888;28;20038;-76
2023/02/15 06:38:55;;;;;;;5.03;4.40;;;16.40;54.00;;;;;;4994723;28;20035;-76
2023/02/15 06:41:21;;;;;;;4.93;4.43;;;16.40;54.10;;;;;;4994693;28;20030;-75
2023/02/15 06:43:46;;;;;;;5.30;4.22;;;16.40;54.10;;;;;;4994367;28;20022;-75
2023/02/15 06:46:12;;;;;;;5.55;4.40;;;16.40;54.10;;;;;;4994484;28;20631;-77
2023/02/15 06:48:38;;;;;;;5.30;4.57;;;16.40;54.20;;;;;;4994566;28;20069;-75
2023/02/15 06:51:03;;;;;;;4.90;4.32;;;16.40;54.20;;;;;;4994366;28;20030;-76
2023/02/15 06:53:29;;;;;;;5.43;4.93;;;16.40;54.10;;;;;;4994472;28;20029;-76
2023/02/15 06:56:08;;;;;;;5.18;4.38;;;16.40;54.20;;;;;;4994405;28;20050;-75
2023/02/15 06:58:38;;;;;;;5.05;4.55;;;16.40;54.20;;;;;;4994321;28;20532;-76
2023/02/15 07:01:05;;;;;;;6.50;4.78;;;16.40;54.30;;;;;;4995481;28;20026;-76
2023/02/15 07:03:31;;;;;;;4.25;3.85;;;16.40;54.30;;;;;;4996200;28;20033;-77
2023/02/15 07:05:58;;;;;;;5.88;4.50;;;16.30;54.20;;;;;;4994324;28;20030;-75
2023/02/15 07:08:25;;;;;;;4.85;4.38;;;16.40;54.20;;;;;;4994098;28;20381;-74
2023/02/15 07:10:52;;;;;;;5.07;4.13;;;16.30;54.20;;;;;;4993895;28;20393;-75
2023/02/15 07:13:17;;;;;;;5.20;4.43;;;16.40;54.30;;;;;;4994098;28;20034;-79
2023/02/15 07:15:44;;;;;;;6.50;4.70;;;16.40;54.20;;;;;;4993771;28;20022;-73
2023/02/15 07:18:10;;;;;;;5.88;4.65;;;16.30;54.20;;;;;;4994000;28;20015;-74
2023/02/15 07:20:37;;;;;;;4.82;4.32;;;16.30;54.20;;;;;;4993029;28;20061;-72
2023/02/15 07:23:03;;;;;;;4.88;4.30;;;16.30;54.20;;;;;;4993730;28;20030;-72
2023/02/15 07:25:29;;;;;;;5.40;4.18;;;16.30;54.20;;;;;;4993822;28;20076;-73
2023/02/15 07:28:03;;;;;;;4.60;4.18;;;16.30;54.20;;;;;;4993549;28;20484;-73
2023/02/15 07:30:29;;;;;;;4.68;4.13;;;16.30;54.20;;;;;;4993649;28;20038;-75
2023/02/15 07:35:50;;;;;;;5.43;4.45;;;16.30;54.20;;;;;;4993836;28;20049;-72
2023/02/15 07:38:17;;;;;;;4.82;4.28;;;16.30;54.20;;;;;;4993672;28;20023;-73
2023/02/15 07:40:43;;;;;;;5.22;4.72;;;16.30;54.20;;;;;;4993376;28;20475;-72
2023/02/15 07:43:09;;;;;;;6.68;4.75;;;16.30;54.20;;;;;;4975882;28;20018;-73
2023/02/15 07:45:34;;;;;;;6.35;4.65;;;16.30;54.20;;;;;;4976045;28;20397;-74
2023/02/15 07:48:01;;;;;;;11.23;8.00;;;16.30;54.20;;;;;;4993160;28;20054;-74
2023/02/15 07:50:26;;;;;;;11.88;9.15;;;16.30;53.90;;;;;;4993341;28;20539;-73
2023/02/15 07:52:52;;;;;;;12.48;9.27;;;16.30;53.70;;;;;;4993078;28;20030;-73
2023/02/15 07:55:18;;;;;;;12.00;9.23;;;16.30;53.70;;;;;;4993194;28;20046;-74
2023/02/15 07:57:45;;;;;;;13.10;9.57;;;16.20;53.60;;;;;;4993354;28;20053;-74
2023/02/15 08:00:13;;;;;;;13.70;9.48;;;16.20;53.60;;;;;;4992963;28;20053;-73
2023/02/15 08:02:39;;;;;;;11.20;9.05;;;16.20;53.60;;;;;;4975605;28;20022;-75
2023/02/15 08:05:05;;;;;;;13.05;9.18;;;16.30;53.70;;;;;;4992779;28;20097;-74
2023/02/15 08:07:30;;;;;;;12.73;8.80;;;16.20;53.60;;;;;;4992893;28;20030;-75
2023/02/15 08:09:56;;;;;;;14.15;8.65;;;16.20;53.70;;;;;;4975507;28;20026;-74
2023/02/15 08:12:22;;;;;;;12.15;9.35;;;16.20;53.60;;;;;;4992820;28;20031;-75
2023/02/15 08:14:47;;;;;;;11.73;9.43;;;16.20;53.70;;;;;;4992722;28;20505;-74
2023/02/15 08:17:13;;;;;;;10.98;8.50;;;16.20;53.60;;;;;;4992955;28;20110;-74
2023/02/15 08:19:38;;;;;;;10.15;8.18;;;16.20;53.60;;;;;;4992761;28;20040;-74
2023/02/15 08:22:06;;;;;;;10.68;8.68;;;16.20;53.60;;;;;;4992748;28;20105;-74
2023/02/15 08:24:36;;;;;;;11.20;8.45;;;16.20;53.70;;;;;;4992468;28;20034;-74
2023/02/15 08:27:03;;;;;;;11.30;8.52;;;16.20;53.60;;;;;;4992488;28;20026;-74
2023/02/15 08:29:30;;;;;;;12.00;8.00;;;16.20;53.70;;;;;;4992486;28;20030;-74
2023/02/15 08:32:08;;;;;;;10.00;8.07;;;16.20;53.70;;;;;;4991845;28;20420;-74
2023/02/15 08:34:40;;;;;;;11.23;8.73;;;16.20;53.70;;;;;;4992682;28;20367;-77
2023/02/15 08:37:06;;;;;;;11.52;8.77;;;16.10;53.60;;;;;;4975208;28;20133;-76
2023/02/15 08:39:32;;;;;;;10.52;7.95;;;16.20;53.60;;;;;;4991333;28;20132;-75
2023/02/15 08:41:58;;;;;;;12.07;8.52;;;16.20;53.70;;;;;;4975282;28;20454;-76
2023/02/15 08:44:24;;;;;;;12.93;9.05;;;16.20;53.80;;;;;;4975547;28;20030;-78
2023/02/15 08:46:50;;;;;;;11.48;8.95;;;16.10;53.70;;;;;;4975337;28;20039;-75
2023/02/15 08:49:19;;;;;;;10.85;8.80;;;16.20;53.90;;;;;;4974966;28;20030;-75
2023/02/15 08:51:46;;;;;;;12.27;8.52;;;16.20;54.40;;;;;;4975438;28;20033;-74
2023/02/15 08:54:15;;;;;;;9.95;7.88;;;16.10;53.70;;;;;;4975319;28;20579;-76
2023/02/15 08:56:42;;;;;;;9.68;7.88;;;16.20;53.80;;;;;;4992761;28;20022;-75
2023/02/15 08:59:17;;;;;;;11.70;8.40;;;16.10;53.80;;;;;;4994804;28;20034;-75
2023/02/15 09:01:44;;;;;;;9.55;8.05;;;16.10;53.80;;;;;;4992708;28;20018;-74
2023/02/15 09:04:12;;;;;;;9.25;7.80;;;16.10;53.80;;;;;;4992375;28;20126;-75
2023/02/15 09:06:39;;;;;;;10.00;7.80;;;16.10;53.80;;;;;;4992620;28;20362;-76
2023/02/15 09:09:07;;;;;;;10.63;7.50;;;16.10;53.80;;;;;;4992611;28;20026;-75
2023/02/15 09:11:42;;;;;;;10.85;7.38;;;16.20;53.80;;;;;;4992253;28;20054;-75
2023/02/15 09:14:13;;;;;;;11.30;7.47;;;16.10;53.80;;;;;;4992622;28;20022;-75
2023/02/15 09:16:41;;;;;;;10.60;7.85;;;16.10;53.90;;;;;;4992496;28;20341;-73
2023/02/15 09:19:07;;;;;;;9.70;7.80;;;16.10;53.80;;;;;;4992414;28;20034;-74
2023/02/15 09:21:37;;;;;;;8.40;7.10;;;16.10;53.90;;;;;;4992438;28;20109;-74
2023/02/15 09:24:06;;;;;;;7.67;6.60;;;16.10;53.90;;;;;;4992129;28;20030;-72
2023/02/15 09:26:36;;;;;;;12.40;7.17;;;16.10;53.90;;;;;;4992419;28;20360;-73
2023/02/15 09:29:03;;;;;;;9.02;7.07;;;16.10;54.00;;;;;;4992477;28;20026;-76
2023/02/15 09:31:38;;;;;;;8.68;7.13;;;16.10;54.00;;;;;;4992218;28;20069;-74
2023/02/15 09:34:04;;;;;;;7.70;6.75;;;16.10;54.10;;;;;;4992680;28;20034;-77
2023/02/15 09:36:35;;;;;;;8.90;6.80;;;16.20;54.20;;;;;;4992554;28;20430;-76
2023/02/15 09:39:23;;;;;;;11.30;7.07;;;16.20;54.30;;;;;;4992303;28;20038;-76
2023/02/15 09:41:54;;;;;;;8.02;7.00;;;16.20;54.30;;;;;;4992255;28;20452;-76
2023/02/15 09:44:44;;;;;;;9.40;6.45;;;16.10;54.40;;;;;;4994268;28;20030;-76
2023/02/15 09:47:41;;;;;;;12.18;7.07;;;16.10;54.50;;;;;;4995828;28;20109;-76
2023/02/15 09:50:32;;;;;;;7.75;6.40;;;16.20;54.60;;;;;;4995659;28;20026;-76
2023/02/15 09:53:21;;;;;;;6.78;5.90;;;16.20;54.70;;;;;;4995669;28;20033;-76
2023/02/15 09:55:56;;;;;;;7.63;5.87;;;16.20;54.70;;;;;;4995574;28;20030;-76
2023/02/15 09:58:30;;;;;;;7.90;6.10;;;16.20;54.70;;;;;;4995440;28;20057;-76
2023/02/15 10:01:14;;;;;;;8.00;6.80;;;16.20;54.70;;;;;;4995387;28;20038;-76
2023/02/15 10:03:57;;;;;;;7.50;6.32;;;16.30;54.70;;;;;;4995157;28;20023;-76
2023/02/15 10:06:46;;;;;;;7.93;6.70;;;16.30;54.70;;;;;;4995286;28;20034;-76
2023/02/15 10:09:41;;;;;;;7.97;5.60;;;16.30;54.70;;;;;;4958557;28;20038;-75
2023/02/15 10:12:22;;;;;;;7.45;5.65;;;16.40;54.70;;;;;;4995321;28;20030;-76
2023/02/15 10:15:11;;;;;;;8.15;6.30;;;16.40;54.60;;;;;;4995179;28;20432;-76
2023/02/15 10:18:14;;;;;;;9.93;6.97;;;16.40;54.80;;;;;;4995239;28;20026;-76
2023/02/15 10:20:46;;;;;;;8.35;6.22;;;16.40;54.80;;;;;;4994970;28;20046;-76
2023/02/15 10:23:49;;;;;;;7.55;6.30;;;16.40;54.70;;;;;;4995302;28;20037;-75
2023/02/15 10:26:20;;;;;;;7.32;6.07;;;16.40;54.90;;;;;;4995009;28;20054;-76
2023/02/15 10:28:53;;;;;;;6.53;5.82;;;16.40;55.00;;;;;;4993872;28;20486;-75
2023/02/15 10:31:43;;;;;;;8.07;6.75;;;16.50;55.60;;;;;;4995245;28;20025;-76
2023/02/15 10:34:16;;;;;;;8.52;6.10;;;16.50;55.10;;;;;;4977567;28;20057;-76
2023/02/15 10:37:27;;;;;;;6.88;6.13;;;16.40;55.00;;;;;;4994823;28;20110;-76
2023/02/15 10:40:16;;;;;;;8.63;6.43;;;16.50;55.20;;;;;;4964328;28;20061;-76
2023/02/15 10:43:05;;;;;;;8.10;6.50;;;16.50;55.30;;;;;;4994637;28;20030;-75
2023/02/15 10:45:54;;;;;;;7.78;5.93;;;16.50;55.40;;;;;;4994539;28;20027;-75
2023/02/15 10:48:30;;;;;;;7.15;5.72;;;16.50;55.50;;;;;;4994594;28;20128;-76
2023/02/15 10:50:59;;;;;;;7.65;5.75;;;16.60;55.40;;;;;;4994502;28;20034;-76
2023/02/15 10:53:38;;;;;;;9.50;6.63;;;16.60;55.50;;;;;;4994725;28;20026;-77
2023/02/15 10:56:20;;;;;;;6.97;6.28;;;16.60;55.40;;;;;;4993754;28;20040;-76
2023/02/15 10:59:18;;;;;;;8.35;6.55;;;16.60;55.50;;;;;;4994298;28;20109;-77
2023/02/15 11:01:51;;;;;;;8.82;6.70;;;16.70;55.30;;;;;;4994263;28;20504;-76
2023/02/15 11:04:16;;;;;;;8.23;6.32;;;16.80;56.00;;;;;;4994225;28;20042;-76
2023/02/15 11:06:53;;;;;;;9.15;6.30;;;16.80;55.10;;;;;;4994098;28;20552;-73
2023/02/15 11:09:22;;;;;;;8.43;6.43;;;16.90;55.30;;;;;;4994132;28;20022;-73
2023/02/15 11:11:53;;;;;;;6.63;5.88;;;16.90;55.00;;;;;;4993895;28;20026;-74
2023/02/15 11:14:43;;;;;;;7.65;6.85;;;17.00;55.00;;;;;;4994291;28;20108;-74
2023/02/15 11:17:14;;;;;;;7.25;6.25;;;17.10;54.70;;;;;;4993942;28;20034;-75
2023/02/15 11:19:51;;;;;;;7.75;6.72;;;17.10;54.90;;;;;;4993702;28;20038;-74
2023/02/15 11:22:18;;;;;;;7.53;6.20;;;17.20;54.80;;;;;;4994454;28;20401;-72
2023/02/15 11:24:46;;;;;;;7.00;6.18;;;17.20;54.70;;;;;;4993851;28;20065;-75
2023/02/15 11:27:41;;;;;;;9.00;7.07;;;17.20;54.70;;;;;;4993780;28;20036;-74
2023/02/15 11:30:14;;;;;;;8.30;7.20;;;17.30;54.70;;;;;;4977338;28;20081;-75
2023/02/15 11:32:49;;;;;;;8.70;6.72;;;17.30;54.80;;;;;;4993687;28;20021;-74
2023/02/15 11:35:27;;;;;;;9.57;6.93;;;17.30;54.60;;;;;;4993425;28;20026;-74
2023/02/15 11:38:19;;;;;;;8.45;6.93;;;17.40;54.70;;;;;;4993201;28;20033;-75
2023/02/15 11:40:52;;;;;;;9.98;6.97;;;17.40;54.90;;;;;;4993249;28;20145;-75
2023/02/15 11:43:34;;;;;;;10.57;7.40;;;17.50;54.80;;;;;;4993217;28;20026;-73
2023/02/15 11:46:00;;;;;;;7.80;6.35;;;17.50;54.90;;;;;;4993435;28;20392;-73
2023/02/15 11:48:29;;;;;;;9.38;7.45;;;17.50;55.00;;;;;;4993023;28;20496;-73
2023/02/15 11:50:56;;;;;;;8.38;6.72;;;17.50;54.80;;;;;;4992986;28;20045;-73
2023/02/15 11:53:27;;;;;;;11.02;7.60;;;17.50;55.00;;;;;;4992991;28;20058;-73
2023/02/15 11:55:54;;;;;;;9.07;7.18;;;17.60;55.00;;;;;;4992893;28;20473;-73
2023/02/15 11:58:47;;;;;;;7.70;6.45;;;17.60;55.10;;;;;;4993090;28;20037;-73
2023/02/15 12:01:32;;;;;;;8.60;6.78;;;17.70;55.00;;;;;;4993224;28;20027;-74
2023/02/15 12:04:07;;;;;;;11.20;8.43;;;17.70;55.20;;;;;;4992675;28;20073;-74
2023/02/15 12:06:38;;;;;;;8.75;7.80;;;17.80;55.00;;;;;;4992624;28;20031;-75
2023/02/15 12:09:32;;;;;;;9.27;7.25;;;17.80;54.70;;;;;;4992826;28;20037;-75
2023/02/15 12:12:23;;;;;;;10.27;7.72;;;17.90;54.80;;;;;;4992929;28;20517;-75
2023/02/15 12:14:53;;;;;;;8.43;7.03;;;18.00;54.70;;;;;;4993025;28;20110;-75
2023/02/15 12:17:22;;;;;;;8.52;7.13;;;18.10;54.40;;;;;;4992777;28;20537;-75
2023/02/15 12:19:52;;;;;;;9.30;7.40;;;18.10;54.50;;;;;;4992851;28;20030;-73
2023/02/15 12:22:23;;;;;;;8.30;7.10;;;18.20;54.40;;;;;;4992541;28;20489;-73
2023/02/15 12:24:53;;;;;;;9.25;6.68;;;18.30;53.90;;;;;;4992768;28;20033;-73
2023/02/15 12:27:29;;;;;;;10.40;7.43;;;18.30;54.00;;;;;;4992484;28;20531;-73
2023/02/15 12:30:07;;;;;;;10.55;6.75;;;18.30;53.80;;;;;;4992830;28;20015;-72
2023/02/15 12:32:35;;;;;;;7.65;6.68;;;18.30;54.00;;;;;;4992450;28;20492;-73
2023/02/15 12:35:32;;;;;;;8.10;6.30;;;18.30;54.10;;;;;;4992284;28;20030;-72
2023/02/15 12:38:10;;;;;;;9.35;6.90;;;18.30;54.20;;;;;;4992491;28;20165;-74
2023/02/15 12:40:38;;;;;;;9.50;6.90;;;18.30;54.30;;;;;;4992358;28;20462;-74
2023/02/15 12:43:08;;;;;;;7.45;6.65;;;18.30;54.30;;;;;;4992598;28;20041;-75
2023/02/15 12:45:37;;;;;;;8.02;5.97;;;18.30;54.60;;;;;;4992635;28;20050;-74
2023/02/15 12:48:16;;;;;;;7.97;6.47;;;18.30;54.50;;;;;;4992270;28;20034;-75
2023/02/15 12:50:50;;;;;;;7.10;5.97;;;18.30;54.50;;;;;;4992637;28;20038;-75
2023/02/15 12:53:31;;;;;;;8.80;6.82;;;18.20;55.20;;;;;;4992574;28;20022;-74
2023/02/15 12:56:02;;;;;;;8.43;6.55;;;18.30;54.70;;;;;;4992284;28;20031;-74
2023/02/15 12:58:31;;;;;;;7.03;6.18;;;18.30;54.70;;;;;;4992635;28;20030;-75
2023/02/15 13:01:17;;;;;;;8.57;6.40;;;18.30;54.60;;;;;;4992271;28;20492;-75
2023/02/15 13:03:54;;;;;;;10.18;7.25;;;18.30;54.70;;;;;;4992168;28;20047;-75
2023/02/15 13:06:21;;;;;;;8.85;6.78;;;18.30;54.70;;;;;;4992268;28;20030;-75
2023/02/15 13:08:50;;;;;;;9.23;7.00;;;18.30;54.90;;;;;;4992232;28;20041;-75
2023/02/15 13:11:34;;;;;;;8.98;7.45;;;18.20;54.80;;;;;;4992217;28;20114;-75
2023/02/15 13:14:15;;;;;;;9.77;6.85;;;18.20;55.00;;;;;;4992287;28;20512;-75
2023/02/15 13:16:42;;;;;;;14.25;7.45;;;18.20;55.00;;;;;;4992151;28;20038;-75
2023/02/15 13:19:34;;;;;;;8.07;6.40;;;18.20;55.20;;;;;;4993945;28;20045;-75
2023/02/15 13:22:05;;;;;;;7.70;6.45;;;18.20;55.50;;;;;;4987027;28;20077;-75
2023/02/15 13:24:38;;;;;;;10.52;6.55;;;18.20;55.40;;;;;;4995745;28;20512;-75
2023/02/15 13:27:05;;;;;;;8.02;6.32;;;18.10;55.20;;;;;;4995725;28;20026;-75
2023/02/15 13:29:35;;;;;;;8.55;6.35;;;18.10;55.40;;;;;;4995664;28;20018;-75
2023/02/15 13:32:15;;;;;;;;;;;18.10;55.40;;;;;;4996073;28;20026;-73
2023/02/15 13:34:40;;;;;;;7.30;6.28;;;18.10;55.60;;;;;;4995899;28;19906;-74
2023/02/15 13:37:33;;;;;;;9.82;6.57;;;18.10;55.50;;;;;;4995389;28;20018;-73